地図

経路データ

SID SEASON NUMBER BASIN SUBBASIN NAME ISO_TIME NATURE LAT LON WMO_WIND WMO_PRES WMO_AGENCY TRACK_TYPE DIST2LAND LANDFALL IFLAG USA_AGENCY USA_ATCF_ID USA_LAT USA_LON USA_RECORD USA_STATUS USA_WIND USA_PRES USA_SSHS USA_R34_NE USA_R34_SE USA_R34_SW USA_R34_NW USA_R50_NE USA_R50_SE USA_R50_SW USA_R50_NW USA_R64_NE USA_R64_SE USA_R64_SW USA_R64_NW USA_POCI USA_ROCI USA_RMW USA_EYE TOKYO_LAT TOKYO_LON TOKYO_GRADE TOKYO_WIND TOKYO_PRES TOKYO_R50_DIR TOKYO_R50_LONG TOKYO_R50_SHORT TOKYO_R30_DIR TOKYO_R30_LONG TOKYO_R30_SHORT TOKYO_LAND CMA_LAT CMA_LON CMA_CAT CMA_WIND CMA_PRES HKO_LAT HKO_LON HKO_CAT HKO_WIND HKO_PRES NEWDELHI_LAT NEWDELHI_LON NEWDELHI_GRADE NEWDELHI_WIND NEWDELHI_PRES NEWDELHI_CI NEWDELHI_DP NEWDELHI_POCI REUNION_LAT REUNION_LON REUNION_TYPE REUNION_WIND REUNION_PRES REUNION_TNUM REUNION_CI REUNION_RMW REUNION_R34_NE REUNION_R34_SE REUNION_R34_SW REUNION_R34_NW REUNION_R50_NE REUNION_R50_SE REUNION_R50_SW REUNION_R50_NW REUNION_R64_NE REUNION_R64_SE REUNION_R64_SW REUNION_R64_NW BOM_LAT BOM_LON BOM_TYPE BOM_WIND BOM_PRES BOM_TNUM BOM_CI BOM_RMW BOM_R34_NE BOM_R34_SE BOM_R34_SW BOM_R34_NW BOM_R50_NE BOM_R50_SE BOM_R50_SW BOM_R50_NW BOM_R64_NE BOM_R64_SE BOM_R64_SW BOM_R64_NW BOM_ROCI BOM_POCI BOM_EYE BOM_POS_METHOD BOM_PRES_METHOD NADI_LAT NADI_LON NADI_CAT NADI_WIND NADI_PRES WELLINGTON_LAT WELLINGTON_LON WELLINGTON_WIND WELLINGTON_PRES DS824_LAT DS824_LON DS824_STAGE DS824_WIND DS824_PRES TD9636_LAT TD9636_LON TD9636_STAGE TD9636_WIND TD9636_PRES TD9635_LAT TD9635_LON TD9635_WIND TD9635_PRES TD9635_ROCI NEUMANN_LAT NEUMANN_LON NEUMANN_CLASS NEUMANN_WIND NEUMANN_PRES MLC_LAT MLC_LON MLC_CLASS MLC_WIND MLC_PRES USA_GUST BOM_GUST BOM_GUST_PER REUNION_GUST REUNION_GUST_PER USA_SEAHGT USA_SEARAD_NE USA_SEARAD_SE USA_SEARAD_SW USA_SEARAD_NW STORM_SPEED STORM_DIR
1973238N11346 1973 87 NA NA CHRISTINE 1973-08-25 12:00:00 TS 11.0000 -14.0000 30 hurdat_atl main 0 0 O_____________ hurdat_atl AL091973 11.0000 -14.0000 TD 30 -1 12 265
1973238N11346 1973 87 NA NA CHRISTINE 1973-08-25 15:00:00 TS 10.9503 -14.6025 main 0 0 P_____________ AL091973 10.9503 -14.6025 TD 30 -1 12 265
1973238N11346 1973 87 NA NA CHRISTINE 1973-08-25 18:00:00 TS 10.9000 -15.2000 30 hurdat_atl main 10 10 O_____________ hurdat_atl AL091973 10.9000 -15.2000 TD 30 -1 12 265
1973238N11346 1973 87 NA NA CHRISTINE 1973-08-25 21:00:00 TS 10.8498 -15.7925 main 62 62 P_____________ AL091973 10.8498 -15.7925 TD 30 -1 12 265
1973238N11346 1973 87 NA NA CHRISTINE 1973-08-26 00:00:00 TS 10.8000 -16.4000 30 hurdat_atl main 109 109 O_____________ hurdat_atl AL091973 10.8000 -16.4000 TD 30 -1 12 266
1973238N11346 1973 87 NA NA CHRISTINE 1973-08-26 03:00:00 TS 10.7574 -17.0424 main 148 148 P_____________ AL091973 10.7574 -17.0424 TD 30 -1 13 266
1973238N11346 1973 87 NA NA CHRISTINE 1973-08-26 06:00:00 TS 10.7000 -17.7000 30 hurdat_atl main 211 211 O_____________ hurdat_atl AL091973 10.7000 -17.7000 TD 30 -1 13 263
1973238N11346 1973 87 NA NA CHRISTINE 1973-08-26 09:00:00 TS 10.5923 -18.3351 main 259 259 P_____________ AL091973 10.5923 -18.3351 TD 30 -1 13 261
1973238N11346 1973 87 NA NA CHRISTINE 1973-08-26 12:00:00 TS 10.5000 -19.0000 30 hurdat_atl main 320 320 O_____________ hurdat_atl AL091973 10.5000 -19.0000 TD 30 -1 14 266
1973238N11346 1973 87 NA NA CHRISTINE 1973-08-26 15:00:00 TS 10.4849 -19.7349 main 381 381 P_____________ AL091973 10.4849 -19.7349 TD 30 -1 15 270
1973238N11346 1973 87 NA NA CHRISTINE 1973-08-26 18:00:00 TS 10.5000 -20.5000 30 hurdat_atl main 456 456 O_____________ hurdat_atl AL091973 10.5000 -20.5000 TD 30 -1 15 271
1973238N11346 1973 87 NA NA CHRISTINE 1973-08-26 21:00:00 TS 10.5001 -21.2875 main 534 534 P_____________ AL091973 10.5001 -21.2875 TD 30 -1 15 270
1973238N11346 1973 87 NA NA CHRISTINE 1973-08-27 00:00:00 TS 10.5000 -22.0000 30 hurdat_atl main 605 605 O_____________ hurdat_atl AL091973 10.5000 -22.0000 TD 30 -1 12 270
1973238N11346 1973 87 NA NA CHRISTINE 1973-08-27 03:00:00 TS 10.4997 -22.5375 main 657 657 P_____________ AL091973 10.4997 -22.5375 TD 30 -1 10 270
1973238N11346 1973 87 NA NA CHRISTINE 1973-08-27 06:00:00 TS 10.5000 -23.0000 30 hurdat_atl main 708 708 O_____________ hurdat_atl AL091973 10.5000 -23.0000 TD 30 -1 9 270
1973238N11346 1973 87 NA NA CHRISTINE 1973-08-27 09:00:00 TS 10.4997 -23.4625 main 761 761 P_____________ AL091973 10.4997 -23.4625 TD 30 -1 10 270
1973238N11346 1973 87 NA NA CHRISTINE 1973-08-27 12:00:00 TS 10.5000 -24.0000 30 hurdat_atl main 813 813 O_____________ hurdat_atl AL091973 10.5000 -24.0000 TD 30 -1 12 270
1973238N11346 1973 87 NA NA CHRISTINE 1973-08-27 15:00:00 TS 10.5001 -24.7125 main 887 887 P_____________ AL091973 10.5001 -24.7125 TD 30 -1 15 270
1973238N11346 1973 87 NA NA CHRISTINE 1973-08-27 18:00:00 TS 10.5000 -25.5000 30 hurdat_atl main 972 972 O_____________ hurdat_atl AL091973 10.5000 -25.5000 TD 30 -1 15 270
1973238N11346 1973 87 NA NA CHRISTINE 1973-08-27 21:00:00 TS 10.4998 -26.2500 main 1046 1046 P_____________ AL091973 10.4998 -26.2500 TD 30 -1 15 270
1973238N11346 1973 87 NA NA CHRISTINE 1973-08-28 00:00:00 TS 10.5000 -27.0000 30 hurdat_atl main 1132 1132 O_____________ hurdat_atl AL091973 10.5000 -27.0000 TD 30 -1 15 270
1973238N11346 1973 87 NA NA CHRISTINE 1973-08-28 03:00:00 TS 10.4998 -27.7500 main 1202 1202 P_____________ AL091973 10.4998 -27.7500 TD 30 -1 15 270
1973238N11346 1973 87 NA NA CHRISTINE 1973-08-28 06:00:00 TS 10.5000 -28.5000 30 hurdat_atl main 1283 1283 O_____________ hurdat_atl AL091973 10.5000 -28.5000 TD 30 -1 15 270
1973238N11346 1973 87 NA NA CHRISTINE 1973-08-28 09:00:00 TS 10.5072 -29.2275 main 1354 1354 P_____________ AL091973 10.5072 -29.2275 TD 35 0 15 270
1973238N11346 1973 87 NA NA CHRISTINE 1973-08-28 12:00:00 TS 10.5000 -30.0000 40 hurdat_atl main 1436 1436 O_____________ hurdat_atl AL091973 10.5000 -30.0000 TS 40 0 16 268
1973238N11346 1973 87 NA NA CHRISTINE 1973-08-28 15:00:00 TS 10.4575 -30.8851 main 1528 1528 P_____________ AL091973 10.4575 -30.8851 TS 40 0 18 267
1973238N11346 1973 87 NA NA CHRISTINE 1973-08-28 18:00:00 TS 10.4000 -31.8000 40 hurdat_atl main 1625 1625 O_____________ hurdat_atl AL091973 10.4000 -31.8000 TS 40 0 17 266
1973238N11346 1973 87 NA NA CHRISTINE 1973-08-28 21:00:00 TS 10.3422 -32.6500 main 1675 1635 P_____________ AL091973 10.3422 -32.6500 TS 40 0 17 267
1973238N11346 1973 87 NA NA CHRISTINE 1973-08-29 00:00:00 TS 10.3000 -33.5000 40 hurdat_atl main 1635 1599 O_____________ hurdat_atl AL091973 10.3000 -33.5000 TS 40 0 17 269
1973238N11346 1973 87 NA NA CHRISTINE 1973-08-29 03:00:00 TS 10.2999 -34.3999 main 1595 1560 P_____________ AL091973 10.2999 -34.3999 TS 40 0 18 270
1973238N11346 1973 87 NA NA CHRISTINE 1973-08-29 06:00:00 TS 10.3000 -35.3000 40 hurdat_atl main 1560 1534 O_____________ hurdat_atl AL091973 10.3000 -35.3000 TS 40 0 18 268
1973238N11346 1973 87 NA NA CHRISTINE 1973-08-29 09:00:00 TS 10.2499 -36.1801 main 1521 1500 P_____________ AL091973 10.2499 -36.1801 TS 40 0 17 267
1973238N11346 1973 87 NA NA CHRISTINE 1973-08-29 12:00:00 TS 10.2000 -37.0000 40 hurdat_atl main 1500 1486 O_____________ hurdat_atl AL091973 10.2000 -37.0000 TS 40 0 15 268
1973238N11346 1973 87 NA NA CHRISTINE 1973-08-29 15:00:00 TS 10.1997 -37.7224 main 1486 1476 P_____________ AL091973 10.1997 -37.7224 TS 40 0 14 270
1973238N11346 1973 87 NA NA CHRISTINE 1973-08-29 18:00:00 TS 10.2000 -38.4000 40 hurdat_atl main 1476 1459 O_____________ hurdat_atl AL091973 10.2000 -38.4000 TS 40 0 14 268
1973238N11346 1973 87 NA NA CHRISTINE 1973-08-29 21:00:00 TS 10.1500 -39.1301 main 1459 1417 P_____________ AL091973 10.1500 -39.1301 TS 40 0 14 266
1973238N11346 1973 87 NA NA CHRISTINE 1973-08-30 00:00:00 TS 10.1000 -39.8000 40 hurdat_atl main 1417 1377 O_____________ hurdat_atl AL091973 10.1000 -39.8000 TS 40 0 12 268
1973238N11346 1973 87 NA NA CHRISTINE 1973-08-30 03:00:00 TS 10.0998 -40.3299 main 1377 1328 P_____________ AL091973 10.0998 -40.3299 TS 40 0 10 270
1973238N11346 1973 87 NA NA CHRISTINE 1973-08-30 06:00:00 TS 10.1000 -40.8000 40 hurdat_atl main 1328 1275 O_____________ hurdat_atl AL091973 10.1000 -40.8000 TS 40 0 9 265
1973238N11346 1973 87 NA NA CHRISTINE 1973-08-30 09:00:00 TS 10.0199 -41.2852 main 1275 1227 P_____________ AL091973 10.0199 -41.2852 TS 42 0 10 264
1973238N11346 1973 87 NA NA CHRISTINE 1973-08-30 12:00:00 TS 10.0000 -41.8000 45 hurdat_atl main 1227 1187 O_____________ hurdat_atl AL091973 10.0000 -41.8000 TS 45 0 11 278
1973238N11346 1973 87 NA NA CHRISTINE 1973-08-30 15:00:00 TS 10.1624 -42.3774 main 1183 1142 P_____________ AL091973 10.1624 -42.3774 TS 45 0 12 289
1973238N11346 1973 87 NA NA CHRISTINE 1973-08-30 18:00:00 TS 10.4000 -43.0000 45 hurdat_atl main 1142 1104 O_____________ hurdat_atl AL091973 10.4000 -43.0000 TS 45 0 13 289
1973238N11346 1973 87 NA NA CHRISTINE 1973-08-30 21:00:00 TS 10.6000 -43.6650 main 1095 1061 P_____________ AL091973 10.6000 -43.6650 TS 45 0 13 287
1973238N11346 1973 87 NA NA CHRISTINE 1973-08-31 00:00:00 TS 10.8000 -44.3000 45 1007 hurdat_atl main 1061 1037 O_____________ hurdat_atl AL091973 10.8000 -44.3000 TS 45 1007 0 12 289
1973238N11346 1973 87 NA NA CHRISTINE 1973-08-31 03:00:00 TS 10.9848 -44.8152 main 1037 1016 P_____________ AL091973 10.9848 -44.8152 TS 47 0 11 292
1973238N11346 1973 87 NA NA CHRISTINE 1973-08-31 06:00:00 TS 11.2000 -45.3000 50 hurdat_atl main 1017 999 O_____________ hurdat_atl AL091973 11.2000 -45.3000 TS 50 0 11 297
1973238N11346 1973 87 NA NA CHRISTINE 1973-08-31 09:00:00 TS 11.4773 -45.8202 main 1008 995 P_____________ AL091973 11.4773 -45.8202 TS 50 0 12 299
1973238N11346 1973 87 NA NA CHRISTINE 1973-08-31 12:00:00 TS 11.8000 -46.4000 50 hurdat_atl main 998 986 O_____________ hurdat_atl AL091973 11.8000 -46.4000 TS 50 0 14 298
1973238N11346 1973 87 NA NA CHRISTINE 1973-08-31 15:00:00 TS 12.1425 -47.0776 main 981 969 P_____________ AL091973 12.1425 -47.0776 TS 50 0 15 297
1973238N11346 1973 87 NA NA CHRISTINE 1973-08-31 18:00:00 TS 12.5000 -47.8000 50 1003 hurdat_atl main 973 963 O_____________ hurdat_atl AL091973 12.5000 -47.8000 TS 50 1003 0 16 298
1973238N11346 1973 87 NA NA CHRISTINE 1973-08-31 21:00:00 TS 12.8648 -48.4926 main 972 963 P_____________ AL091973 12.8648 -48.4926 TS 50 0 15 297
1973238N11346 1973 87 NA NA CHRISTINE 1973-09-01 00:00:00 TS 13.2000 -49.2000 50 hurdat_atl main 969 961 O_____________ hurdat_atl AL091973 13.2000 -49.2000 TS 50 0 15 293
1973238N11346 1973 87 NA NA CHRISTINE 1973-09-01 03:00:00 TS 13.4573 -49.9354 main 972 953 P_____________ AL091973 13.4573 -49.9354 TS 50 0 15 289
1973238N11346 1973 87 NA NA CHRISTINE 1973-09-01 06:00:00 TS 13.7000 -50.7000 50 hurdat_atl main 954 947 O_____________ hurdat_atl AL091973 13.7000 -50.7000 TS 50 0 17 290
1973238N11346 1973 87 NA NA CHRISTINE 1973-09-01 09:00:00 TS 14.0227 -51.5372 main 954 950 P_____________ AL091973 14.0227 -51.5372 TS 50 0 17 291
1973238N11346 1973 87 NA NA CHRISTINE 1973-09-01 12:00:00 TS 14.3000 -52.3000 50 1002 hurdat_atl main 963 959 O_____________ hurdat_atl AL091973 14.3000 -52.3000 TS 50 1002 0 13 288
1973238N11346 1973 87 NA NA CHRISTINE 1973-09-01 15:00:00 TS 14.4295 -52.8379 main 964 937 P_____________ AL091973 14.4295 -52.8379 TS 50 1001 0 10 282
1973238N11346 1973 87 NA NA CHRISTINE 1973-09-01 18:00:00 TS 14.5000 -53.3000 50 hurdat_atl main 937 895 I_____________ hurdat_atl AL091973 14.5000 -53.3000 TS 50 1000 0 10 280
1973238N11346 1973 87 NA NA CHRISTINE 1973-09-01 21:00:00 TS 14.5999 -53.8425 main 895 844 P_____________ AL091973 14.5999 -53.8425 TS 52 999 0 11 281
1973238N11346 1973 87 NA NA CHRISTINE 1973-09-02 00:00:00 TS 14.7000 -54.4000 55 999 hurdat_atl main 844 805 O_____________ hurdat_atl AL091973 14.7000 -54.4000 TS 55 999 0 11 280
1973238N11346 1973 87 NA NA CHRISTINE 1973-09-02 03:00:00 TS 14.7923 -54.9351 main 805 759 P_____________ AL091973 14.7923 -54.9351 TS 57 997 0 11 281
1973238N11346 1973 87 NA NA CHRISTINE 1973-09-02 06:00:00 TS 14.9000 -55.5000 60 996 hurdat_atl main 759 717 O_____________ hurdat_atl AL091973 14.9000 -55.5000 TS 60 996 0 12 283
1973238N11346 1973 87 NA NA CHRISTINE 1973-09-02 09:00:00 TS 15.0577 -56.1648 main 716 679 P_____________ AL091973 15.0577 -56.1648 TS 60 0 13 283
1973238N11346 1973 87 NA NA CHRISTINE 1973-09-02 12:00:00 TS 15.2000 -56.8000 60 hurdat_atl main 679 644 O_____________ hurdat_atl AL091973 15.2000 -56.8000 TS 60 0 11 280
1973238N11346 1973 87 NA NA CHRISTINE 1973-09-02 15:00:00 TS 15.2497 -57.2803 main 644 627 P_____________ AL091973 15.2497 -57.2803 TS 57 0 9 277
1973238N11346 1973 87 NA NA CHRISTINE 1973-09-02 18:00:00 TS 15.3000 -57.7000 55 hurdat_atl main 627 612 O_____________ hurdat_atl AL091973 15.3000 -57.7000 TS 55 0 9 282
1973238N11346 1973 87 NA NA CHRISTINE 1973-09-02 21:00:00 TS 15.4274 -58.1500 main 607 601 P_____________ AL091973 15.4274 -58.1500 TS 55 0 9 289
1973238N11346 1973 87 NA NA CHRISTINE 1973-09-03 00:00:00 TS 15.6000 -58.6000 55 1004 hurdat_atl main 607 600 O_____________ hurdat_atl AL091973 15.6000 -58.6000 TS 55 1004 0 9 293
1973238N11346 1973 87 NA NA CHRISTINE 1973-09-03 03:00:00 TS 15.7925 -59.0575 main 606 603 P_____________ AL091973 15.7925 -59.0575 TS 55 1005 0 10 295
1973238N11346 1973 87 NA NA CHRISTINE 1973-09-03 06:00:00 TS 16.0000 -59.5000 55 hurdat_atl main 615 612 I_____________ hurdat_atl AL091973 16.0000 -59.5000 TS 55 1006 0 9 298
1973238N11346 1973 87 NA NA CHRISTINE 1973-09-03 09:00:00 TS 16.1996 -59.8702 main 627 597 P_____________ AL091973 16.1996 -59.8702 TS 52 1007 0 9 298
1973238N11346 1973 87 NA NA CHRISTINE 1973-09-03 12:00:00 TS 16.4000 -60.3000 50 1008 hurdat_atl main 597 529 O_____________ hurdat_atl AL091973 16.4000 -60.3000 TS 50 1008 0 11 292
1973238N11346 1973 87 NA CS CHRISTINE 1973-09-03 15:00:00 TS 16.6077 -60.9274 main 529 452 P_____________ AL091973 16.6077 -60.9274 TS 40 1008 0 13 288
1973238N11346 1973 87 NA CS CHRISTINE 1973-09-03 18:00:00 TS 16.8000 -61.6000 30 hurdat_atl main 452 398 I_____________ hurdat_atl AL091973 16.8000 -61.6000 TD 30 1009 -1 12 285
1973238N11346 1973 87 NA CS CHRISTINE 1973-09-03 21:00:00 TS 16.9347 -62.1654 main 388 331 P_____________ AL091973 16.9347 -62.1654 TD 30 1010 -1 11 286
1973238N11346 1973 87 NA CS CHRISTINE 1973-09-04 00:00:00 TS 17.1000 -62.7000 30 1011 hurdat_atl main 331 269 O_____________ hurdat_atl AL091973 17.1000 -62.7000 TD 30 1011 -1 11 293
1973238N11346 1973 87 NA CS CHRISTINE 1973-09-04 03:00:00 TS 17.3698 -63.2426 main 269 198 P_____________ AL091973 17.3698 -63.2426 TD 30 -1 12 300
1973238N11346 1973 87 NA CS CHRISTINE 1973-09-04 06:00:00 TS 17.7000 -63.8000 30 hurdat_atl main 198 128 O_____________ hurdat_atl AL091973 17.7000 -63.8000 TD 30 -1 13 302
1973238N11346 1973 87 NA CS CHRISTINE 1973-09-04 09:00:00 TS 18.0499 -64.3925 main 128 63 P_____________ AL091973 18.0499 -64.3925 TD 30 -1 13 302
1973238N11346 1973 87 NA CS CHRISTINE 1973-09-04 12:00:00 TS 18.4000 -65.0000 30 hurdat_atl main 63 24 O_____________ hurdat_atl AL091973 18.4000 -65.0000 TD 30 -1 13 300
1973238N11346 1973 87 NA CS CHRISTINE 1973-09-04 15:00:00 TS 18.7128 -65.6022 main 33 33 P_____________ AL091973 18.7128 -65.6022 TD 30 -1 13 298
1973238N11346 1973 87 NA NA CHRISTINE 1973-09-04 18:00:00 TS 19.0000 -66.2000 30 hurdat_atl main 67 O_____________ hurdat_atl AL091973 19.0000 -66.2000 TD 30 -1 13 297

IBTrACS Databaseについて

本データベースは、米国NOAAが公開する1842年以降の世界の熱帯低気圧のベストトラックデータアーカイブInternational Best Track Archive for Climate Stewardship (IBTrACS)を、ウェブで閲覧しやすい形式に変換したものです。

最終更新日:2021-10-21